createdAt,value
2017-04-17T00:00:17.087Z,6.80
2017-04-17T00:01:16.301Z,6.70
2017-04-17T00:02:15.423Z,6.80
2017-04-17T00:03:15.292Z,6.80
2017-04-17T00:04:14.433Z,6.80
2017-04-17T00:05:14.278Z,6.80
2017-04-17T00:06:16.418Z,6.80
2017-04-17T00:07:15.586Z,6.80
2017-04-17T00:08:14.800Z,6.80
2017-04-17T00:09:14.046Z,6.70
2017-04-17T00:10:14.082Z,6.70
2017-04-17T00:11:13.198Z,6.70
2017-04-17T00:12:12.319Z,6.60
2017-04-17T00:13:12.158Z,6.60
2017-04-17T00:14:11.290Z,6.60
2017-04-17T00:15:10.455Z,6.60
2017-04-17T00:16:09.543Z,6.60
2017-04-17T00:17:09.624Z,6.60
2017-04-17T00:18:09.728Z,6.50
2017-04-17T00:19:08.844Z,6.50
2017-04-17T00:20:07.995Z,6.50
2017-04-17T00:21:07.097Z,6.50
2017-04-17T00:22:06.186Z,6.50
2017-04-17T00:23:05.262Z,6.50
2017-04-17T00:24:04.351Z,6.60
2017-04-17T00:25:03.470Z,6.60
2017-04-17T00:26:02.584Z,6.60
2017-04-17T00:27:01.671Z,6.60
2017-04-17T00:28:00.863Z,6.70
2017-04-17T00:28:59.965Z,6.70
2017-04-17T00:29:59.100Z,6.70
2017-04-17T00:30:58.239Z,6.70
2017-04-17T00:31:57.636Z,6.70
2017-04-17T00:32:56.762Z,6.70
2017-04-17T00:33:55.854Z,6.70
2017-04-17T00:34:55.706Z,6.60
2017-04-17T00:35:54.791Z,6.70
2017-04-17T00:36:53.952Z,6.70
2017-04-17T00:37:53.065Z,6.60
2017-04-17T00:38:52.170Z,6.60
2017-04-17T00:39:51.259Z,6.60
2017-04-17T00:40:50.379Z,6.60
2017-04-17T00:41:49.482Z,6.60
2017-04-17T00:42:48.647Z,6.60
2017-04-17T00:43:48.475Z,6.50
2017-04-17T00:44:47.609Z,6.60
2017-04-17T00:45:46.726Z,6.60
2017-04-17T00:46:46.542Z,6.50
2017-04-17T00:47:46.591Z,6.50
2017-04-17T00:48:45.764Z,6.50
2017-04-17T00:49:44.850Z,6.50
2017-04-17T00:50:44.447Z,6.50
2017-04-17T00:51:44.428Z,6.40
2017-04-17T00:52:43.657Z,6.50
2017-04-17T00:53:42.756Z,6.50
2017-04-17T00:54:43.289Z,6.40
2017-04-17T00:55:42.381Z,6.40
2017-04-17T00:56:42.251Z,6.40
2017-04-17T00:57:41.371Z,6.40
2017-04-17T00:58:40.531Z,6.50
2017-04-17T00:59:39.637Z,6.50
2017-04-17T01:00:38.753Z,6.50
2017-04-17T01:01:38.000Z,6.60
2017-04-17T01:02:37.149Z,6.50
2017-04-17T01:03:36.287Z,6.50
2017-04-17T01:04:36.169Z,6.50
2017-04-17T01:05:36.025Z,6.60
2017-04-17T01:06:35.165Z,6.60
2017-04-17T01:07:36.140Z,6.60
2017-04-17T01:08:35.273Z,6.60
2017-04-17T01:09:34.486Z,6.60
2017-04-17T01:10:33.571Z,6.70
2017-04-17T01:11:32.874Z,6.70
2017-04-17T01:12:33.474Z,6.70
2017-04-17T01:13:32.686Z,6.70
2017-04-17T01:14:31.975Z,6.70
2017-04-17T01:15:31.775Z,6.80
2017-04-17T01:16:31.486Z,6.80
2017-04-17T01:17:30.616Z,6.80
2017-04-17T01:18:29.775Z,6.80
2017-04-17T01:19:28.922Z,6.90
2017-04-17T01:20:28.014Z,6.80
2017-04-17T01:21:27.218Z,6.80
2017-04-17T01:22:28.188Z,6.80
2017-04-17T01:23:27.511Z,6.80
2017-04-17T01:24:26.658Z,6.80
2017-04-17T01:25:25.792Z,6.90
2017-04-17T01:26:25.786Z,6.90
2017-04-17T01:27:26.524Z,6.90
2017-04-17T01:28:25.739Z,6.90
2017-04-17T01:29:25.493Z,6.90
2017-04-17T01:30:24.667Z,6.80
2017-04-17T01:31:23.842Z,6.80
2017-04-17T01:32:22.993Z,6.70
2017-04-17T01:33:22.358Z,6.70
2017-04-17T01:34:22.456Z,6.70
2017-04-17T01:35:22.343Z,6.70
2017-04-17T01:36:21.750Z,6.60
2017-04-17T01:37:21.371Z,6.50
2017-04-17T01:38:20.501Z,6.50
2017-04-17T01:39:20.465Z,6.30
2017-04-17T01:40:19.828Z,6.30
2017-04-17T01:41:20.923Z,6.20
2017-04-17T01:42:20.667Z,6.20
2017-04-17T01:43:21.902Z,6.10
2017-04-17T01:44:21.129Z,6.10
2017-04-17T01:45:20.598Z,6.10
2017-04-17T01:46:21.164Z,6.10
2017-04-17T01:47:20.435Z,6.10
2017-04-17T01:48:21.310Z,6.00
2017-04-17T01:49:20.393Z,6.00
2017-04-17T01:50:19.779Z,6.00
2017-04-17T01:51:19.022Z,6.00
2017-04-17T01:52:18.188Z,5.90
2017-04-17T01:53:18.854Z,5.90
2017-04-17T01:54:27.176Z,6.00
2017-04-17T01:55:27.310Z,5.90
2017-04-17T01:56:27.194Z,5.90
2017-04-17T01:57:26.388Z,5.90
2017-04-17T01:58:25.539Z,6.00
2017-04-17T01:59:24.714Z,6.00
2017-04-17T02:00:24.545Z,6.00
2017-04-17T02:01:24.656Z,5.90
2017-04-17T02:02:30.284Z,6.00
2017-04-17T02:03:29.403Z,6.00
2017-04-17T02:04:28.629Z,6.00
2017-04-17T02:05:27.776Z,6.00
2017-04-17T02:06:27.680Z,5.90
2017-04-17T02:07:26.782Z,6.00
2017-04-17T02:08:26.036Z,5.90
2017-04-17T02:09:25.183Z,5.90
2017-04-17T02:10:25.065Z,5.90
2017-04-17T02:11:24.186Z,5.90
2017-04-17T02:12:23.524Z,5.90
2017-04-17T02:13:22.690Z,5.90
2017-04-17T02:14:21.775Z,5.90
2017-04-17T02:15:20.990Z,5.90
2017-04-17T02:16:20.110Z,5.90
2017-04-17T02:17:19.188Z,5.90
2017-04-17T02:18:18.270Z,5.90
2017-04-17T02:19:18.123Z,5.90
2017-04-17T02:20:17.263Z,5.90
2017-04-17T02:21:16.632Z,5.90
2017-04-17T02:22:15.733Z,5.90
2017-04-17T02:23:14.814Z,5.90
2017-04-17T02:24:13.895Z,5.90
2017-04-17T02:25:13.128Z,5.90
2017-04-17T02:26:12.262Z,6.00
2017-04-17T02:27:11.342Z,6.00
2017-04-17T02:28:11.195Z,6.00
2017-04-17T02:29:10.283Z,6.00
2017-04-17T02:30:09.394Z,6.10
2017-04-17T02:31:08.481Z,6.00
2017-04-17T02:32:07.582Z,6.10
2017-04-17T02:33:06.650Z,6.10
2017-04-17T02:34:05.734Z,6.10
2017-04-17T02:35:04.869Z,6.10
2017-04-17T02:36:04.063Z,6.10
2017-04-17T02:37:03.144Z,6.10
2017-04-17T02:38:02.280Z,6.10
2017-04-17T02:39:01.491Z,6.10
2017-04-17T02:40:00.631Z,6.00
2017-04-17T02:40:59.816Z,6.00
2017-04-17T02:41:58.906Z,6.00
2017-04-17T02:44:02.603Z,6.00
2017-04-17T02:45:01.735Z,5.90
2017-04-17T02:46:01.685Z,5.90
2017-04-17T02:47:00.810Z,5.90
2017-04-17T02:47:59.975Z,6.00
2017-04-17T02:48:59.898Z,5.90
2017-04-17T02:49:59.109Z,6.00
2017-04-17T02:50:58.272Z,6.00
2017-04-17T02:51:57.412Z,6.00
2017-04-17T02:52:56.574Z,6.00
2017-04-17T02:53:55.647Z,6.00
2017-04-17T02:54:55.478Z,6.00
2017-04-17T02:55:54.919Z,6.00
2017-04-17T02:56:54.016Z,6.10
2017-04-17T02:57:53.083Z,6.00
2017-04-17T02:58:52.198Z,6.10
2017-04-17T02:59:51.283Z,6.00
2017-04-17T03:00:50.419Z,6.10
2017-04-17T03:01:49.590Z,6.10
2017-04-17T03:02:48.711Z,6.10
2017-04-17T03:03:48.127Z,6.10
2017-04-17T03:04:47.279Z,6.10
2017-04-17T03:05:46.398Z,6.20
2017-04-17T03:06:45.521Z,6.20
2017-04-17T03:07:44.773Z,6.20
2017-04-17T03:08:43.876Z,6.20
2017-04-17T03:09:43.731Z,6.10
2017-04-17T03:10:42.862Z,6.20
2017-04-17T03:11:41.949Z,6.20
2017-04-17T03:12:41.603Z,6.20
2017-04-17T03:13:41.483Z,6.20
2017-04-17T03:14:41.270Z,6.20
2017-04-17T03:15:41.262Z,6.30
2017-04-17T03:16:41.159Z,6.20
2017-04-17T03:17:41.714Z,6.20
2017-04-17T03:18:40.849Z,6.30
2017-04-17T03:19:41.577Z,6.30
2017-04-17T03:20:40.971Z,6.30
2017-04-17T03:21:40.278Z,6.30
2017-04-17T03:22:40.679Z,6.30
2017-04-17T03:23:41.164Z,6.30
2017-04-17T03:24:41.171Z,6.30
2017-04-17T03:25:40.347Z,6.40
2017-04-17T03:26:39.962Z,6.40
2017-04-17T03:27:40.033Z,6.40
2017-04-17T03:28:39.410Z,6.40
2017-04-17T03:29:39.491Z,6.40
2017-04-17T03:30:39.138Z,6.40
2017-04-17T03:31:38.272Z,6.50
2017-04-17T03:32:37.433Z,6.40
2017-04-17T03:33:36.559Z,6.50
2017-04-17T03:34:36.455Z,6.50
2017-04-17T03:35:36.241Z,6.50
2017-04-17T03:36:35.795Z,6.50
2017-04-17T03:37:35.378Z,6.50
2017-04-17T03:38:34.482Z,6.50
2017-04-17T03:39:33.571Z,6.50
2017-04-17T03:40:36.696Z,6.50
2017-04-17T03:41:38.691Z,6.50
2017-04-17T03:42:37.760Z,6.50
2017-04-17T03:43:36.839Z,6.60
2017-04-17T03:44:35.925Z,6.60
2017-04-17T03:45:35.055Z,6.60
2017-04-17T03:46:34.515Z,6.60
2017-04-17T03:47:34.125Z,6.60
2017-04-17T03:48:33.311Z,6.50
2017-04-17T03:49:38.892Z,6.50
2017-04-17T03:50:38.032Z,6.40
2017-04-17T03:51:37.107Z,6.40
2017-04-17T03:52:36.215Z,6.40
2017-04-17T03:53:35.336Z,6.50
2017-04-17T03:54:34.423Z,6.40
2017-04-17T03:55:33.583Z,6.50
2017-04-17T03:56:32.711Z,6.40
2017-04-17T03:57:31.881Z,6.40
2017-04-17T03:58:30.941Z,6.50
2017-04-17T03:59:30.058Z,6.40
2017-04-17T04:00:29.139Z,6.50
2017-04-17T04:01:28.222Z,6.50
2017-04-17T04:02:27.351Z,6.40
2017-04-17T04:03:26.487Z,6.50
2017-04-17T04:04:25.578Z,6.50
2017-04-17T04:05:24.699Z,6.50
2017-04-17T04:06:23.774Z,6.60
2017-04-17T04:07:23.144Z,6.60
2017-04-17T04:08:22.289Z,6.60
2017-04-17T04:09:21.366Z,6.60
2017-04-17T04:10:20.457Z,6.60
2017-04-17T04:11:19.514Z,6.60
2017-04-17T04:12:18.811Z,6.70
2017-04-17T04:13:17.859Z,6.70
2017-04-17T04:14:16.970Z,6.70
2017-04-17T04:15:16.030Z,6.70
2017-04-17T04:16:15.083Z,6.80
2017-04-17T04:17:14.935Z,6.70
2017-04-17T04:18:13.991Z,6.80
2017-04-17T04:19:13.060Z,6.80
2017-04-17T04:20:12.168Z,6.80
2017-04-17T04:21:11.227Z,6.80
2017-04-17T04:22:11.055Z,6.80
2017-04-17T04:23:10.110Z,6.80
2017-04-17T04:24:09.164Z,6.80
2017-04-17T04:25:08.826Z,6.80
2017-04-17T04:26:07.935Z,6.80
2017-04-17T04:27:07.009Z,6.80
2017-04-17T04:28:06.831Z,6.80
2017-04-17T04:29:05.919Z,6.80
2017-04-17T04:30:05.219Z,6.80
2017-04-17T04:31:04.291Z,6.80
2017-04-17T04:32:03.410Z,6.70
2017-04-17T04:33:02.486Z,6.70
2017-04-17T04:34:01.555Z,6.70
2017-04-17T04:35:00.629Z,6.80
2017-04-17T04:35:59.705Z,6.80
2017-04-17T04:36:59.527Z,6.80
2017-04-17T04:37:58.648Z,6.90
2017-04-17T04:38:57.759Z,6.90
2017-04-17T04:39:56.822Z,6.90
2017-04-17T04:40:55.893Z,6.90
2017-04-17T04:41:54.995Z,6.90
2017-04-17T04:42:54.070Z,7.00
2017-04-17T04:43:53.178Z,6.90
2017-04-17T04:44:52.256Z,6.90
2017-04-17T04:45:51.330Z,7.00
2017-04-17T04:46:50.390Z,6.90
2017-04-17T04:47:49.463Z,6.90
2017-04-17T04:48:48.807Z,7.00
2017-04-17T04:49:47.903Z,6.90
2017-04-17T04:50:47.023Z,7.00
2017-04-17T04:51:46.147Z,6.90
2017-04-17T04:52:45.198Z,6.90
2017-04-17T04:53:44.265Z,6.80
2017-04-17T04:54:43.330Z,6.80
2017-04-17T04:55:43.242Z,6.70
2017-04-17T04:56:43.160Z,6.70
2017-04-17T04:57:42.244Z,6.70
2017-04-17T04:58:41.319Z,6.60
2017-04-17T04:59:40.395Z,6.60
2017-04-17T05:00:39.450Z,6.60
2017-04-17T05:01:38.554Z,6.50
2017-04-17T05:02:37.667Z,6.50
2017-04-17T05:03:36.734Z,6.50
2017-04-17T05:04:36.554Z,6.50
2017-04-17T05:05:35.615Z,6.50
2017-04-17T05:06:35.426Z,6.40
2017-04-17T05:07:36.290Z,6.50
2017-04-17T05:08:35.407Z,6.60
2017-04-17T05:09:35.875Z,6.50
2017-04-17T05:10:35.623Z,6.50
2017-04-17T05:11:34.704Z,6.50
2017-04-17T05:12:34.685Z,6.50
2017-04-17T05:13:33.803Z,6.50
2017-04-17T05:14:34.530Z,6.50
2017-04-17T05:15:35.334Z,6.50
2017-04-17T05:16:34.489Z,6.50
2017-04-17T05:17:33.826Z,6.50
2017-04-17T05:18:32.939Z,6.60
2017-04-17T05:19:32.073Z,6.60
2017-04-17T05:20:31.158Z,6.60
2017-04-17T05:21:30.286Z,6.60
2017-04-17T05:22:29.367Z,6.60
2017-04-17T05:23:28.504Z,6.60
2017-04-17T05:24:27.699Z,6.60
2017-04-17T05:25:26.761Z,6.60
2017-04-17T05:26:25.867Z,6.60
2017-04-17T05:27:25.071Z,6.70
2017-04-17T05:28:24.134Z,6.80
2017-04-17T05:29:23.191Z,6.80
2017-04-17T05:30:22.306Z,6.90
2017-04-17T05:31:21.390Z,6.90
2017-04-17T05:32:20.478Z,7.00
2017-04-17T05:33:19.574Z,7.00
2017-04-17T05:34:18.693Z,7.00
2017-04-17T05:35:17.823Z,7.00
2017-04-17T05:36:16.904Z,7.00
2017-04-17T05:37:16.008Z,7.00
2017-04-17T05:38:15.093Z,7.00
2017-04-17T05:39:14.181Z,7.00
2017-04-17T05:40:13.262Z,7.00
2017-04-17T05:41:12.388Z,7.00
2017-04-17T05:42:11.474Z,6.90
2017-04-17T05:43:10.580Z,6.90
2017-04-17T05:44:10.381Z,6.90
2017-04-17T05:45:09.467Z,7.00
2017-04-17T05:46:09.275Z,6.90
2017-04-17T05:47:08.434Z,7.00
2017-04-17T05:48:07.484Z,6.90
2017-04-17T05:49:06.546Z,6.90
2017-04-17T05:50:06.033Z,6.90
2017-04-17T05:51:05.100Z,6.80
2017-04-17T05:52:04.962Z,6.80
2017-04-17T05:53:04.067Z,6.90
2017-04-17T05:54:03.162Z,6.90
2017-04-17T05:55:02.993Z,6.80
2017-04-17T05:56:02.051Z,6.80
2017-04-17T05:57:01.947Z,6.80
2017-04-17T05:58:01.127Z,6.80
2017-04-17T05:59:00.219Z,6.80
2017-04-17T05:59:59.288Z,6.80
2017-04-17T06:00:58.431Z,6.80
2017-04-17T06:01:57.565Z,6.80
2017-04-17T06:02:56.998Z,6.90
2017-04-17T06:03:56.106Z,6.90
2017-04-17T06:04:55.175Z,6.90
2017-04-17T06:05:54.227Z,6.90
2017-04-17T06:06:53.554Z,6.90
2017-04-17T06:07:52.638Z,6.90
2017-04-17T06:08:51.774Z,6.90
2017-04-17T06:09:50.874Z,6.80
2017-04-17T06:10:51.873Z,6.80
2017-04-17T06:11:53.857Z,6.80
2017-04-17T06:12:53.785Z,6.80
2017-04-17T06:13:52.901Z,6.90
2017-04-17T06:14:51.999Z,6.80
2017-04-17T06:15:51.274Z,6.80
2017-04-17T06:16:51.214Z,6.80
2017-04-17T06:17:50.318Z,6.80
2017-04-17T06:18:49.425Z,6.80
2017-04-17T06:19:48.591Z,6.80
2017-04-17T06:20:47.670Z,6.90
2017-04-17T06:21:46.987Z,6.90
2017-04-17T06:22:46.072Z,7.00
2017-04-17T06:23:45.136Z,7.00
2017-04-17T06:24:44.987Z,7.00
2017-04-17T06:25:44.115Z,7.00
2017-04-17T06:26:43.177Z,6.90
2017-04-17T06:27:42.324Z,6.90
2017-04-17T06:28:41.403Z,7.00
2017-04-17T06:29:40.465Z,7.10
2017-04-17T06:30:40.319Z,7.00
2017-04-17T06:31:39.371Z,7.10
2017-04-17T06:32:38.440Z,7.10
2017-04-17T06:33:37.644Z,7.10
2017-04-17T06:34:36.723Z,7.20
2017-04-17T06:35:35.828Z,7.20
2017-04-17T06:36:34.947Z,7.20
2017-04-17T06:37:34.007Z,7.30
2017-04-17T06:38:33.083Z,7.30
2017-04-17T06:39:32.230Z,7.30
2017-04-17T06:40:31.298Z,7.40
2017-04-17T06:41:30.378Z,7.40
2017-04-17T06:42:29.455Z,7.40
2017-04-17T06:43:28.531Z,7.50
2017-04-17T06:44:27.595Z,7.50
2017-04-17T06:45:26.728Z,7.60
2017-04-17T06:46:25.847Z,7.60
2017-04-17T06:47:24.951Z,7.60
2017-04-17T06:48:24.019Z,7.70
2017-04-17T06:49:23.074Z,7.90
2017-04-17T06:50:22.913Z,8.00
2017-04-17T06:51:22.044Z,8.10
2017-04-17T06:52:21.112Z,8.30
2017-04-17T06:53:20.171Z,8.40
2017-04-17T06:54:19.250Z,8.50
2017-04-17T06:55:18.348Z,8.70
2017-04-17T06:56:17.459Z,8.90
2017-04-17T06:57:16.570Z,8.90
2017-04-17T06:58:15.643Z,9.00
2017-04-17T06:59:14.728Z,9.10
2017-04-17T07:00:13.810Z,9.10
2017-04-17T07:01:19.318Z,9.10
2017-04-17T07:02:18.438Z,9.10
2017-04-17T07:03:18.267Z,9.20
2017-04-17T07:04:17.387Z,9.40
2017-04-17T07:05:16.468Z,9.60
2017-04-17T07:06:15.566Z,9.70
2017-04-17T07:07:14.691Z,9.70
2017-04-17T07:08:13.746Z,9.80
2017-04-17T07:09:12.848Z,9.90
2017-04-17T07:10:11.997Z,9.80
2017-04-17T07:11:11.147Z,9.70
2017-04-17T07:12:10.212Z,9.40
2017-04-17T07:13:09.274Z,9.40
2017-04-17T07:14:08.336Z,9.50
2017-04-17T07:15:07.403Z,9.60
2017-04-17T07:16:06.531Z,9.70
2017-04-17T07:17:05.602Z,9.60
2017-04-17T07:18:04.658Z,9.70
2017-04-17T07:19:03.746Z,9.70
2017-04-17T07:20:02.807Z,9.70
2017-04-17T07:21:01.874Z,9.50
2017-04-17T07:22:00.992Z,9.50
2017-04-17T07:23:00.133Z,9.40
2017-04-17T07:23:59.940Z,9.40
2017-04-17T07:24:59.443Z,9.40
2017-04-17T07:25:58.509Z,9.30
2017-04-17T07:26:57.590Z,9.30
2017-04-17T07:27:56.700Z,9.30
2017-04-17T07:28:55.772Z,9.20
2017-04-17T07:29:54.851Z,9.10
2017-04-17T07:30:53.984Z,9.20
2017-04-17T07:31:54.150Z,9.00
2017-04-17T07:32:53.962Z,9.00
2017-04-17T07:33:53.031Z,9.00
2017-04-17T07:34:52.143Z,8.90
2017-04-17T07:35:51.211Z,8.80
2017-04-17T07:36:50.294Z,8.70
2017-04-17T07:37:49.427Z,8.70
2017-04-17T07:38:48.511Z,8.70
2017-04-17T07:39:47.606Z,8.70
2017-04-17T07:40:46.678Z,8.60
2017-04-17T07:41:45.742Z,8.70
2017-04-17T07:42:44.816Z,8.80
2017-04-17T07:43:43.979Z,8.90
2017-04-17T07:44:43.062Z,9.00
2017-04-17T07:45:42.135Z,9.10
2017-04-17T07:46:41.235Z,9.20
2017-04-17T07:47:40.343Z,9.30
2017-04-17T07:48:39.423Z,9.30
2017-04-17T07:49:38.575Z,9.40
2017-04-17T07:50:37.711Z,9.30
2017-04-17T07:51:36.778Z,9.30
2017-04-17T07:52:35.857Z,9.20
2017-04-17T07:53:35.667Z,9.00
2017-04-17T07:54:34.723Z,9.10
2017-04-17T07:55:33.849Z,9.00
2017-04-17T07:56:32.919Z,9.00
2017-04-17T07:57:31.974Z,9.10
2017-04-17T07:58:31.015Z,9.10
2017-04-17T07:59:30.090Z,9.20
2017-04-17T08:00:29.406Z,9.20
2017-04-17T08:01:28.490Z,9.20
2017-04-17T08:02:27.712Z,9.10
2017-04-17T08:03:26.762Z,9.00
2017-04-17T08:04:25.817Z,8.90
2017-04-17T08:05:24.854Z,8.80
2017-04-17T08:06:24.044Z,8.80
2017-04-17T08:07:23.139Z,8.90
2017-04-17T08:08:22.195Z,9.00
2017-04-17T08:09:21.235Z,8.90
2017-04-17T08:10:20.355Z,9.00
2017-04-17T08:11:20.136Z,8.90
2017-04-17T08:12:19.449Z,9.00
2017-04-17T08:13:18.562Z,9.00
2017-04-17T08:14:17.647Z,9.00
2017-04-17T08:15:16.707Z,8.90
2017-04-17T08:16:15.772Z,8.90
2017-04-17T08:17:15.572Z,8.90
2017-04-17T08:18:14.738Z,9.00
2017-04-17T08:19:13.849Z,9.20
2017-04-17T08:20:13.668Z,9.30
2017-04-17T08:21:12.732Z,9.40
2017-04-17T08:22:12.588Z,9.40
2017-04-17T08:23:11.698Z,9.40
2017-04-17T08:24:10.784Z,9.30
2017-04-17T08:25:09.842Z,9.20
2017-04-17T08:26:08.898Z,9.20
2017-04-17T08:27:07.962Z,9.30
2017-04-17T08:28:07.181Z,9.20
2017-04-17T08:29:06.251Z,9.10
2017-04-17T08:30:05.339Z,9.20
2017-04-17T08:31:04.411Z,9.20
2017-04-17T08:32:03.476Z,9.30
2017-04-17T08:33:02.795Z,9.30
2017-04-17T08:34:01.894Z,9.40
2017-04-17T08:35:01.002Z,9.40
2017-04-17T08:36:00.073Z,9.50
2017-04-17T08:36:59.198Z,9.50
2017-04-17T08:37:58.269Z,9.40
2017-04-17T08:38:57.398Z,9.30
2017-04-17T08:39:57.323Z,9.20
2017-04-17T08:40:56.385Z,9.20
2017-04-17T08:41:56.186Z,9.20
2017-04-17T08:42:55.240Z,9.30
2017-04-17T08:43:54.379Z,9.30
2017-04-17T08:44:53.442Z,9.30
2017-04-17T08:45:52.547Z,9.20
2017-04-17T08:46:51.760Z,9.20
2017-04-17T08:47:50.846Z,9.20
2017-04-17T08:48:49.908Z,9.20
2017-04-17T08:49:48.958Z,9.30
2017-04-17T08:50:48.034Z,9.40
2017-04-17T08:51:47.141Z,9.50
2017-04-17T08:52:46.271Z,9.60
2017-04-17T08:53:45.335Z,9.80
2017-04-17T08:54:44.388Z,9.70
2017-04-17T08:55:44.519Z,9.60
2017-04-17T08:56:43.584Z,9.50
2017-04-17T08:57:42.662Z,9.50
2017-04-17T08:58:42.549Z,9.50
2017-04-17T08:59:41.627Z,9.60
2017-04-17T09:00:40.676Z,9.70
2017-04-17T09:01:39.747Z,9.90
2017-04-17T09:02:38.798Z,10.10
2017-04-17T09:03:38.609Z,10.30
2017-04-17T09:04:37.781Z,10.50
2017-04-17T09:05:36.850Z,10.50
2017-04-17T09:06:35.955Z,10.60
2017-04-17T09:07:35.065Z,10.70
2017-04-17T09:08:34.131Z,10.60
2017-04-17T09:09:33.209Z,10.60
2017-04-17T09:10:32.295Z,10.60
2017-04-17T09:11:31.476Z,10.60
2017-04-17T09:12:30.583Z,10.70
2017-04-17T09:13:29.714Z,10.70
2017-04-17T09:14:28.858Z,10.60
2017-04-17T09:15:27.926Z,10.40
2017-04-17T09:16:26.986Z,10.40
2017-04-17T09:17:26.038Z,10.40
2017-04-17T09:18:25.119Z,10.60
2017-04-17T09:19:24.280Z,10.80
2017-04-17T09:20:24.117Z,10.70
2017-04-17T09:21:23.216Z,10.50
2017-04-17T09:22:22.355Z,10.40
2017-04-17T09:23:21.443Z,10.20
2017-04-17T09:24:20.532Z,10.20
2017-04-17T09:25:19.635Z,9.90
2017-04-17T09:26:18.717Z,9.70
2017-04-17T09:27:17.831Z,9.60
2017-04-17T09:28:16.954Z,9.60
2017-04-17T09:29:16.048Z,9.70
2017-04-17T09:30:15.206Z,9.80
2017-04-17T09:31:14.262Z,9.80
2017-04-17T09:32:13.346Z,9.80
2017-04-17T09:33:12.382Z,9.90
2017-04-17T09:34:11.550Z,9.80
2017-04-17T09:35:10.603Z,9.70
2017-04-17T09:36:09.654Z,9.80
2017-04-17T09:37:08.707Z,9.80
2017-04-17T09:38:07.794Z,9.90
2017-04-17T09:39:06.862Z,10.00
2017-04-17T09:40:06.008Z,10.10
2017-04-17T09:41:05.159Z,10.10
2017-04-17T09:42:04.988Z,10.00
2017-04-17T09:43:04.063Z,9.90
2017-04-17T09:44:03.853Z,9.80
2017-04-17T09:45:03.659Z,9.80
2017-04-17T09:46:02.824Z,9.90
2017-04-17T09:47:01.911Z,9.90
2017-04-17T09:48:00.971Z,10.00
2017-04-17T09:49:00.100Z,10.10
2017-04-17T09:49:59.185Z,10.30
2017-04-17T09:50:58.359Z,10.50
2017-04-17T09:51:58.194Z,10.60
2017-04-17T09:52:58.155Z,10.60
2017-04-17T09:53:57.251Z,10.40
2017-04-17T09:54:56.338Z,10.40
2017-04-17T09:55:55.512Z,10.40
2017-04-17T09:56:54.574Z,10.40
2017-04-17T09:57:53.692Z,10.50
2017-04-17T09:58:53.015Z,10.60
2017-04-17T09:59:52.680Z,10.90
2017-04-17T10:00:51.862Z,11.10
2017-04-17T10:01:50.928Z,11.40
2017-04-17T10:02:50.020Z,11.60
2017-04-17T10:03:49.194Z,11.70
2017-04-17T10:04:48.364Z,11.60
2017-04-17T10:05:47.622Z,11.40
2017-04-17T10:06:47.439Z,11.30
2017-04-17T10:07:47.147Z,11.20
2017-04-17T10:08:46.289Z,11.10
2017-04-17T10:09:46.394Z,11.10
2017-04-17T10:10:45.658Z,11.20
2017-04-17T10:11:44.767Z,11.10
2017-04-17T10:12:44.843Z,10.80
2017-04-17T10:13:43.945Z,10.50
2017-04-17T10:14:43.027Z,10.50
2017-04-17T10:15:42.210Z,10.50
2017-04-17T10:16:41.299Z,10.50
2017-04-17T10:17:40.390Z,10.50
2017-04-17T10:18:39.492Z,10.50
2017-04-17T10:19:38.571Z,10.40
2017-04-17T10:20:37.663Z,10.40
2017-04-17T10:21:36.786Z,10.50
2017-04-17T10:22:35.874Z,10.50
2017-04-17T10:23:34.963Z,10.50
2017-04-17T10:24:34.194Z,10.60
2017-04-17T10:25:33.297Z,10.70
2017-04-17T10:26:32.386Z,10.80
2017-04-17T10:27:32.377Z,10.90
2017-04-17T10:28:31.472Z,11.00
2017-04-17T10:29:30.556Z,11.20
2017-04-17T10:30:29.639Z,11.40
2017-04-17T10:31:28.752Z,11.60
2017-04-17T10:32:27.837Z,11.80
2017-04-17T10:33:27.000Z,12.00
2017-04-17T10:34:26.887Z,12.20
2017-04-17T10:35:26.022Z,12.50
2017-04-17T10:36:25.107Z,12.70
2017-04-17T10:37:24.321Z,12.90
2017-04-17T10:38:23.478Z,12.60
2017-04-17T10:39:22.592Z,12.50
2017-04-17T10:40:22.975Z,12.70
2017-04-17T10:41:22.449Z,12.90
2017-04-17T10:42:22.428Z,13.10
2017-04-17T10:43:21.561Z,13.20
2017-04-17T10:44:20.959Z,13.40
2017-04-17T10:45:20.054Z,13.40
2017-04-17T10:46:19.184Z,13.20
2017-04-17T10:47:18.298Z,13.30
2017-04-17T10:48:18.101Z,13.30
2017-04-17T10:49:17.250Z,13.40
2017-04-17T10:50:16.359Z,13.40
2017-04-17T10:51:15.491Z,13.60
2017-04-17T10:52:14.655Z,13.60
2017-04-17T10:53:13.796Z,13.70
2017-04-17T10:54:12.873Z,13.90
2017-04-17T10:55:11.968Z,14.00
2017-04-17T10:56:11.156Z,14.10
2017-04-17T10:57:10.343Z,14.20
2017-04-17T10:58:09.554Z,14.20
2017-04-17T10:59:08.775Z,13.80
2017-04-17T11:00:07.843Z,13.70
2017-04-17T11:01:06.941Z,13.70
2017-04-17T11:02:06.006Z,13.70
2017-04-17T11:03:05.342Z,13.30
2017-04-17T11:04:04.512Z,13.10
2017-04-17T11:05:04.099Z,12.70
2017-04-17T11:06:03.207Z,12.20
2017-04-17T11:07:02.293Z,11.80
2017-04-17T11:08:01.403Z,11.50
2017-04-17T11:09:00.525Z,11.30
2017-04-17T11:09:59.733Z,11.10
2017-04-17T11:10:58.814Z,11.00
2017-04-17T11:11:57.922Z,11.00
2017-04-17T11:12:57.004Z,11.10
2017-04-17T11:13:56.094Z,11.40
2017-04-17T11:14:55.206Z,11.60
2017-04-17T11:15:54.352Z,11.80
2017-04-17T11:16:53.429Z,12.00
2017-04-17T11:17:52.531Z,12.10
2017-04-17T11:18:51.607Z,11.70
2017-04-17T11:19:50.669Z,11.60
2017-04-17T11:20:50.505Z,11.00
2017-04-17T11:21:49.699Z,10.50
2017-04-17T11:22:49.527Z,10.00
2017-04-17T11:23:48.651Z,9.70
2017-04-17T11:24:48.378Z,9.50
2017-04-17T11:25:47.471Z,9.30
2017-04-17T11:26:46.547Z,9.10
2017-04-17T11:27:45.694Z,8.90
2017-04-17T11:28:44.823Z,8.80
2017-04-17T11:29:43.908Z,8.90
2017-04-17T11:30:42.982Z,8.80
2017-04-17T11:31:42.057Z,8.90
2017-04-17T11:32:41.163Z,9.10
2017-04-17T11:33:40.722Z,9.40
2017-04-17T11:34:39.806Z,9.60
2017-04-17T11:35:39.991Z,9.50
2017-04-17T11:36:39.063Z,9.60
2017-04-17T11:37:38.163Z,9.70
2017-04-17T11:38:37.275Z,9.60
2017-04-17T11:39:36.439Z,9.50
2017-04-17T11:40:36.274Z,9.40
2017-04-17T11:41:35.408Z,9.50
2017-04-17T11:42:34.472Z,9.50
2017-04-17T11:43:33.582Z,9.40
2017-04-17T11:44:32.640Z,9.20
2017-04-17T11:45:31.778Z,9.20
2017-04-17T11:46:30.847Z,9.10
2017-04-17T11:47:29.915Z,9.00
2017-04-17T11:48:29.065Z,8.90
2017-04-17T11:49:28.163Z,8.60
2017-04-17T11:50:27.243Z,8.40
2017-04-17T11:51:26.365Z,8.40
2017-04-17T11:52:25.412Z,8.40
2017-04-17T11:53:24.516Z,8.40
2017-04-17T11:54:24.314Z,8.30
2017-04-17T11:55:23.374Z,8.40
2017-04-17T11:56:22.746Z,8.50
2017-04-17T11:57:22.597Z,8.40
2017-04-17T11:58:21.660Z,8.60
2017-04-17T11:59:20.752Z,8.60
2017-04-17T12:00:19.829Z,8.60
2017-04-17T12:01:18.931Z,8.50
2017-04-17T12:02:18.021Z,8.60
2017-04-17T12:03:17.163Z,8.50
2017-04-17T12:04:16.231Z,8.40
2017-04-17T12:05:16.063Z,8.30
2017-04-17T12:06:15.164Z,8.40
2017-04-17T12:07:14.240Z,8.40
2017-04-17T12:08:13.334Z,8.50
2017-04-17T12:09:12.442Z,8.60
2017-04-17T12:10:11.538Z,8.70
2017-04-17T12:11:10.609Z,8.80
2017-04-17T12:12:09.676Z,8.80
2017-04-17T12:13:08.799Z,8.90
2017-04-17T12:14:08.133Z,9.10
2017-04-17T12:15:07.207Z,9.20
2017-04-17T12:16:07.010Z,9.30
2017-04-17T12:17:06.178Z,9.50
2017-04-17T12:18:05.258Z,9.60
2017-04-17T12:19:04.394Z,9.60
2017-04-17T12:20:03.456Z,9.80
2017-04-17T12:21:02.523Z,9.90
2017-04-17T12:22:01.640Z,10.00
2017-04-17T12:23:01.030Z,10.10
2017-04-17T12:24:00.155Z,10.20
2017-04-17T12:24:59.303Z,10.10
2017-04-17T12:25:58.429Z,10.20
2017-04-17T12:26:57.506Z,10.20
2017-04-17T12:27:56.598Z,10.10
2017-04-17T12:28:55.676Z,10.10
2017-04-17T12:29:55.227Z,9.90
2017-04-17T12:30:54.310Z,9.70
2017-04-17T12:31:53.430Z,9.50
2017-04-17T12:32:52.499Z,9.40
2017-04-17T12:33:51.588Z,9.30
2017-04-17T12:34:50.699Z,9.10
2017-04-17T12:35:49.804Z,9.00
2017-04-17T12:36:48.854Z,8.90
2017-04-17T12:37:48.012Z,8.90
2017-04-17T12:38:47.139Z,8.80
2017-04-17T12:39:46.244Z,8.70
2017-04-17T12:40:45.346Z,8.70
2017-04-17T12:41:44.404Z,8.70
2017-04-17T12:42:43.459Z,8.70
2017-04-17T12:43:42.579Z,8.80
2017-04-17T12:44:41.641Z,8.80
2017-04-17T12:45:40.747Z,8.80
2017-04-17T12:46:40.147Z,8.80
2017-04-17T12:47:39.243Z,8.80
2017-04-17T12:48:38.287Z,8.90
2017-04-17T12:49:37.437Z,9.00
2017-04-17T12:50:36.502Z,9.10
2017-04-17T12:51:36.411Z,9.20
2017-04-17T12:52:36.235Z,9.30
2017-04-17T12:53:35.290Z,9.50
2017-04-17T12:54:34.335Z,9.60
2017-04-17T12:55:33.490Z,9.60
2017-04-17T12:56:32.601Z,9.60
2017-04-17T12:57:31.684Z,9.60
2017-04-17T12:58:30.795Z,9.70
2017-04-17T12:59:29.923Z,9.80
2017-04-17T13:00:29.050Z,9.70
2017-04-17T13:01:28.182Z,9.70
2017-04-17T13:02:27.359Z,9.80
2017-04-17T13:03:26.462Z,10.00
2017-04-17T13:04:25.571Z,10.10
2017-04-17T13:05:24.650Z,10.30